createdAt,value
2018-07-13T00:01:17.919Z,11.10
2018-07-13T00:03:47.193Z,14.93
2018-07-13T00:06:16.318Z,19.30
2018-07-13T00:08:45.308Z,19.07
2018-07-13T00:11:14.415Z,18.40
2018-07-13T00:13:49.093Z,25.43
2018-07-13T00:16:17.944Z,18.80
2018-07-13T00:18:46.685Z,17.17
2018-07-13T00:21:15.778Z,17.43
2018-07-13T00:23:44.964Z,17.23
2018-07-13T00:26:14.248Z,16.83
2018-07-13T00:28:43.628Z,13.63
2018-07-13T00:31:13.061Z,17.47
2018-07-13T00:33:42.268Z,14.10
2018-07-13T00:36:11.590Z,13.07
2018-07-13T00:38:40.761Z,15.43
2018-07-13T00:41:09.944Z,21.83
2018-07-13T00:43:39.217Z,20.73
2018-07-13T00:46:08.521Z,18.10
2018-07-13T00:48:37.529Z,18.10
2018-07-13T00:51:06.712Z,17.00
2018-07-13T00:53:35.592Z,18.27
2018-07-13T00:56:04.765Z,20.17
2018-07-13T00:58:34.007Z,21.10
2018-07-13T01:01:03.114Z,23.53
2018-07-13T01:03:31.862Z,22.40
2018-07-13T01:06:00.937Z,24.53
2018-07-13T01:08:30.084Z,22.83
2018-07-13T01:10:58.992Z,24.33
2018-07-13T01:13:27.766Z,20.97
2018-07-13T01:15:56.786Z,32.67
2018-07-13T01:18:26.116Z,28.10
2018-07-13T01:20:55.235Z,34.53
2018-07-13T01:23:24.095Z,27.23
2018-07-13T01:25:53.132Z,29.10
2018-07-13T01:28:22.443Z,26.77
2018-07-13T01:30:51.279Z,24.73
2018-07-13T01:33:20.346Z,25.67
2018-07-13T01:35:49.549Z,33.40
2018-07-13T01:38:18.739Z,20.67
2018-07-13T01:40:47.683Z,21.10
2018-07-13T01:43:16.790Z,24.33
2018-07-13T01:45:45.973Z,23.83
2018-07-13T01:48:15.407Z,24.90
2018-07-13T01:50:44.657Z,20.60
2018-07-13T01:53:13.808Z,26.10
2018-07-13T01:55:42.899Z,21.90
2018-07-13T01:58:11.837Z,26.13
2018-07-13T02:00:41.096Z,18.53
2018-07-13T02:03:09.951Z,14.57
2018-07-13T02:05:38.939Z,11.47
2018-07-13T02:08:08.088Z,17.77
2018-07-13T02:10:36.926Z,14.10
2018-07-13T02:13:06.291Z,15.07
2018-07-13T02:15:35.451Z,19.00
2018-07-13T02:18:04.856Z,20.90
2018-07-13T02:20:33.960Z,22.17
2018-07-13T02:23:03.211Z,22.80
2018-07-13T02:25:32.476Z,25.50
2018-07-13T02:28:01.643Z,24.03
2018-07-13T02:30:30.766Z,26.90
2018-07-13T02:32:59.950Z,30.13
2018-07-13T02:35:29.064Z,28.23
2018-07-13T02:37:58.280Z,25.67
2018-07-13T02:40:27.396Z,20.07
2018-07-13T02:42:56.572Z,20.37
2018-07-13T02:45:25.710Z,19.37
2018-07-13T02:47:54.840Z,18.20
2018-07-13T02:50:23.960Z,31.20
2018-07-13T02:52:53.202Z,25.13
2018-07-13T02:55:22.336Z,29.13
2018-07-13T02:57:51.466Z,38.77
2018-07-13T03:00:20.633Z,31.70
2018-07-13T03:02:49.806Z,50.57
2018-07-13T03:05:18.985Z,35.50
2018-07-13T03:07:48.116Z,40.83
2018-07-13T03:10:17.291Z,36.53
2018-07-13T03:12:46.410Z,45.10
2018-07-13T03:15:15.603Z,39.30
2018-07-13T03:17:44.779Z,29.67
2018-07-13T03:20:14.094Z,39.30
2018-07-13T03:22:43.282Z,38.33
2018-07-13T03:25:12.421Z,34.17
2018-07-13T03:27:41.291Z,36.83
2018-07-13T03:30:10.345Z,40.70
2018-07-13T03:32:39.481Z,40.20
2018-07-13T03:35:08.813Z,42.80
2018-07-13T03:37:38.000Z,39.17
2018-07-13T03:40:07.245Z,44.03
2018-07-13T03:42:36.567Z,52.27
2018-07-13T03:45:05.883Z,55.73
2018-07-13T03:47:35.088Z,56.00
2018-07-13T03:50:04.283Z,56.63
2018-07-13T03:52:33.543Z,48.23
2018-07-13T03:55:02.729Z,55.43
2018-07-13T03:57:31.868Z,56.57
2018-07-13T04:00:01.065Z,70.37
2018-07-13T04:02:30.276Z,67.23
2018-07-13T04:04:59.593Z,57.00
2018-07-13T04:07:28.888Z,58.87
2018-07-13T04:09:58.068Z,60.27
2018-07-13T04:12:27.263Z,71.77
2018-07-13T04:14:56.447Z,62.40
2018-07-13T04:17:25.835Z,73.00
2018-07-13T04:19:54.983Z,59.47
2018-07-13T04:22:24.228Z,71.33
2018-07-13T04:24:53.409Z,77.17
2018-07-13T04:27:22.653Z,73.97
2018-07-13T04:29:52.014Z,72.30
2018-07-13T04:32:21.235Z,68.60
2018-07-13T04:34:50.401Z,88.03
2018-07-13T04:37:19.575Z,56.67
2018-07-13T04:39:48.736Z,70.47
2018-07-13T04:42:17.938Z,73.53
2018-07-13T04:44:47.119Z,80.67
2018-07-13T04:47:16.391Z,87.77
2018-07-13T04:49:45.632Z,102.87
2018-07-13T04:52:14.860Z,73.93
2018-07-13T04:54:44.543Z,78.20
2018-07-13T04:57:13.887Z,72.30
2018-07-13T04:59:43.532Z,78.30
2018-07-13T05:02:12.788Z,91.43
2018-07-13T05:04:42.009Z,85.97
2018-07-13T05:07:11.210Z,107.60
2018-07-13T05:09:40.396Z,98.30
2018-07-13T05:12:09.595Z,101.70
2018-07-13T05:14:38.756Z,121.00
2018-07-13T05:17:08.033Z,114.90
2018-07-13T05:19:37.216Z,108.23
2018-07-13T05:22:06.738Z,99.63
2018-07-13T05:24:35.935Z,102.40
2018-07-13T05:27:05.167Z,100.00
2018-07-13T05:29:34.353Z,98.13
2018-07-13T05:32:03.561Z,89.57
2018-07-13T05:34:32.779Z,98.93
2018-07-13T05:37:02.207Z,85.67
2018-07-13T05:39:31.442Z,83.53
2018-07-13T05:42:00.661Z,76.53
2018-07-13T05:44:29.872Z,73.87
2018-07-13T05:46:59.125Z,74.40
2018-07-13T05:49:28.391Z,66.43
2018-07-13T05:51:57.665Z,61.83
2018-07-13T05:54:26.995Z,25.80
2018-07-13T05:56:56.253Z,33.37
2018-07-13T05:59:25.480Z,27.87
2018-07-13T06:01:54.695Z,19.20
2018-07-13T06:04:23.888Z,19.10
2018-07-13T06:06:53.289Z,8.57
2018-07-13T06:09:22.487Z,16.50
2018-07-13T06:11:52.177Z,10.90
2018-07-13T06:14:21.368Z,8.13
2018-07-13T06:16:50.505Z,8.47
2018-07-13T06:19:19.722Z,5.63
2018-07-13T06:21:48.894Z,6.30
2018-07-13T06:24:18.110Z,6.67
2018-07-13T06:26:48.030Z,12.27
2018-07-13T06:29:17.330Z,6.77
2018-07-13T06:31:46.711Z,4.00
2018-07-13T06:34:15.949Z,4.83
2018-07-13T06:36:45.409Z,6.60
2018-07-13T06:39:14.561Z,4.63
2018-07-13T06:41:43.755Z,4.80
2018-07-13T06:44:19.408Z,2.57
2018-07-13T06:46:48.680Z,4.80
2018-07-13T06:49:17.957Z,4.83
2018-07-13T06:51:47.201Z,3.47
2018-07-13T06:54:16.390Z,6.10
2018-07-13T06:56:45.527Z,4.50
2018-07-13T06:59:15.976Z,2.53
2018-07-13T07:01:45.764Z,4.20
2018-07-13T07:04:33.799Z,3.60
2018-07-13T07:07:04.996Z,4.33
2018-07-13T07:09:34.009Z,4.93
2018-07-13T07:13:10.708Z,3.70
2018-07-13T07:15:39.601Z,2.93
2018-07-13T07:18:08.861Z,4.40
2018-07-13T07:20:38.044Z,3.47
2018-07-13T07:23:07.198Z,5.90
2018-07-13T07:25:36.370Z,6.97
2018-07-13T07:28:05.670Z,3.47
2018-07-13T07:30:34.875Z,5.17
2018-07-13T07:33:04.040Z,3.20
2018-07-13T07:35:33.220Z,8.57
2018-07-13T07:38:02.371Z,3.07
2018-07-13T07:40:31.757Z,2.10
2018-07-13T07:43:00.971Z,2.43
2018-07-13T07:45:30.341Z,3.47
2018-07-13T07:47:59.470Z,5.30
2018-07-13T07:50:28.615Z,2.70
2018-07-13T07:52:57.747Z,7.40
2018-07-13T07:55:26.866Z,4.90
2018-07-13T07:57:56.021Z,3.77
2018-07-13T08:00:25.226Z,7.40
2018-07-13T08:02:54.464Z,3.70
2018-07-13T08:05:23.793Z,4.03
2018-07-13T08:07:53.058Z,4.83
2018-07-13T08:10:22.266Z,3.10
2018-07-13T08:12:51.515Z,5.20
2018-07-13T08:15:20.668Z,3.90
2018-07-13T08:17:49.791Z,3.33
2018-07-13T08:20:21.541Z,3.03
2018-07-13T08:22:54.781Z,3.80
2018-07-13T08:25:24.408Z,8.17
2018-07-13T08:27:54.721Z,2.70
2018-07-13T08:30:34.099Z,2.80
2018-07-13T08:33:03.319Z,3.50
2018-07-13T08:35:32.530Z,2.90
2018-07-13T08:38:01.893Z,3.07
2018-07-13T08:40:31.232Z,4.70
2018-07-13T08:43:00.601Z,4.83
2018-07-13T08:45:29.801Z,3.07
2018-07-13T08:47:59.020Z,8.80
2018-07-13T08:50:28.449Z,4.50
2018-07-13T08:52:58.231Z,4.33
2018-07-13T08:55:27.408Z,4.40
2018-07-13T08:57:56.751Z,2.10
2018-07-13T09:00:26.145Z,8.00
2018-07-13T09:02:55.308Z,2.63
2018-07-13T09:05:24.523Z,6.10
2018-07-13T09:07:53.708Z,2.43
2018-07-13T09:10:22.891Z,2.03
2018-07-13T09:12:52.130Z,1.83
2018-07-13T09:15:21.378Z,4.20
2018-07-13T09:17:50.601Z,2.60
2018-07-13T09:20:19.777Z,2.17
2018-07-13T09:22:48.927Z,2.53
2018-07-13T09:25:18.183Z,2.27
2018-07-13T09:27:47.356Z,2.93
2018-07-13T09:30:16.691Z,6.70
2018-07-13T09:32:45.860Z,11.10
2018-07-13T09:35:15.117Z,2.50
2018-07-13T09:37:44.237Z,2.40
2018-07-13T09:40:13.423Z,3.03
2018-07-13T09:42:42.759Z,2.70
2018-07-13T09:45:11.922Z,3.23
2018-07-13T09:47:41.081Z,2.90
2018-07-13T09:50:10.297Z,2.70
2018-07-13T09:52:39.667Z,2.60
2018-07-13T09:55:08.884Z,4.70
2018-07-13T09:57:38.091Z,7.20
2018-07-13T10:00:08.079Z,3.73
2018-07-13T10:02:37.280Z,2.77
2018-07-13T10:05:06.481Z,4.57
2018-07-13T10:07:35.714Z,2.40
2018-07-13T10:10:04.869Z,2.40
2018-07-13T10:12:34.056Z,3.20
2018-07-13T10:15:03.234Z,2.40
2018-07-13T10:17:32.427Z,3.17
2018-07-13T10:20:01.683Z,5.33
2018-07-13T10:22:32.008Z,4.03
2018-07-13T10:25:04.111Z,10.90
2018-07-13T10:27:34.953Z,6.73
2018-07-13T10:30:05.276Z,3.17
2018-07-13T10:32:34.632Z,2.97
2018-07-13T10:35:05.532Z,4.87
2018-07-13T10:37:34.897Z,3.53
2018-07-13T10:40:04.091Z,2.67
2018-07-13T10:42:33.288Z,2.77
2018-07-13T10:45:02.496Z,2.83
2018-07-13T10:47:31.717Z,2.40
2018-07-13T10:50:00.987Z,2.13
2018-07-13T10:52:30.150Z,2.40
2018-07-13T10:54:59.297Z,3.00
2018-07-13T10:57:28.664Z,3.90
2018-07-13T10:59:57.833Z,2.03
2018-07-13T11:02:33.679Z,6.10
2018-07-13T11:05:02.886Z,2.50
2018-07-13T11:07:32.063Z,2.53
2018-07-13T11:10:01.218Z,2.20
2018-07-13T11:12:30.379Z,3.70
2018-07-13T11:14:59.544Z,1.80
2018-07-13T11:17:28.715Z,3.40
2018-07-13T11:19:57.862Z,1.80
2018-07-13T11:22:27.061Z,1.90
2018-07-13T11:24:57.213Z,2.83
2018-07-13T11:27:26.396Z,2.37
2018-07-13T11:29:55.562Z,2.43
2018-07-13T11:32:24.793Z,2.83
2018-07-13T11:34:54.009Z,3.53
2018-07-13T11:37:23.266Z,2.27
2018-07-13T11:39:52.442Z,1.97
2018-07-13T11:42:21.619Z,2.27
2018-07-13T11:44:50.875Z,2.33
2018-07-13T11:47:20.188Z,3.23
2018-07-13T11:49:49.346Z,2.73
2018-07-13T11:55:43.557Z,2.33
2018-07-13T11:58:12.737Z,8.47
2018-07-13T12:00:42.115Z,3.50
2018-07-13T12:03:11.381Z,5.33
2018-07-13T12:05:40.561Z,2.50
2018-07-13T12:08:09.761Z,2.33
2018-07-13T12:10:38.953Z,2.40
2018-07-13T12:13:08.172Z,3.63
2018-07-13T12:15:37.414Z,2.10
2018-07-13T12:18:06.687Z,4.27
2018-07-13T12:20:35.853Z,5.20
2018-07-13T12:23:05.147Z,5.20
2018-07-13T12:25:34.298Z,4.70
2018-07-13T12:28:03.550Z,2.93
2018-07-13T12:30:32.749Z,2.97
2018-07-13T12:33:02.123Z,13.33
2018-07-13T12:35:31.446Z,4.77
2018-07-13T12:38:00.585Z,2.73
2018-07-13T12:40:29.773Z,3.20
2018-07-13T12:42:58.954Z,2.47
2018-07-13T12:45:28.150Z,3.27
2018-07-13T12:47:57.349Z,2.77
2018-07-13T12:50:26.683Z,3.10
2018-07-13T12:52:55.829Z,3.80
2018-07-13T12:55:25.041Z,2.50
2018-07-13T12:57:54.200Z,6.03
2018-07-13T13:00:23.594Z,3.07
2018-07-13T13:02:52.794Z,3.70
2018-07-13T13:05:22.049Z,3.77
2018-07-13T13:07:51.497Z,3.33
2018-07-13T13:10:20.663Z,1.93
2018-07-13T13:12:49.825Z,2.77
2018-07-13T13:15:19.099Z,3.67
2018-07-13T13:17:48.274Z,2.80
2018-07-13T13:20:17.510Z,4.27
2018-07-13T13:22:46.785Z,2.70
2018-07-13T13:25:16.828Z,4.27
2018-07-13T13:27:46.028Z,2.47
2018-07-13T13:30:15.321Z,4.17
2018-07-13T13:32:44.465Z,3.63
2018-07-13T13:35:13.629Z,3.90
2018-07-13T13:37:42.825Z,2.30
2018-07-13T13:40:11.992Z,1.77
2018-07-13T13:42:41.266Z,2.23
2018-07-13T13:45:10.447Z,2.97
2018-07-13T13:47:39.729Z,3.30
2018-07-13T13:50:09.255Z,4.97
2018-07-13T13:52:38.454Z,4.93
2018-07-13T13:55:07.779Z,4.40
2018-07-13T13:57:37.008Z,2.30
2018-07-13T14:00:06.296Z,2.37
2018-07-13T14:02:35.446Z,4.40
2018-07-13T14:05:04.651Z,3.20
2018-07-13T14:07:33.844Z,1.90
2018-07-13T14:10:03.086Z,3.27
2018-07-13T14:12:32.322Z,2.93
2018-07-13T14:15:01.482Z,3.10
2018-07-13T14:17:30.678Z,2.30
2018-07-13T14:19:59.879Z,3.27
2018-07-13T14:22:30.268Z,1.93
2018-07-13T14:24:59.526Z,4.63
2018-07-13T14:27:28.762Z,3.40
2018-07-13T14:29:57.905Z,2.37
2018-07-13T14:32:27.200Z,2.93
2018-07-13T14:34:56.383Z,1.87
2018-07-13T14:37:25.647Z,4.57
2018-07-13T14:39:55.185Z,2.30
2018-07-13T14:42:25.642Z,2.60
2018-07-13T14:44:54.864Z,2.40
2018-07-13T14:47:24.050Z,5.40
2018-07-13T14:49:53.419Z,6.07
2018-07-13T14:52:22.655Z,2.60
2018-07-13T14:54:51.814Z,3.17
2018-07-13T14:57:21.072Z,5.30
2018-07-13T14:59:50.446Z,3.03
2018-07-13T15:02:19.718Z,4.00
2018-07-13T15:04:48.931Z,7.80
2018-07-13T15:07:18.125Z,4.90
2018-07-13T15:09:47.327Z,1.80
2018-07-13T15:12:16.563Z,4.50
2018-07-13T15:14:45.760Z,3.30
2018-07-13T15:17:14.976Z,3.10
2018-07-13T15:19:44.238Z,6.60
2018-07-13T15:22:13.539Z,6.23
2018-07-13T15:24:43.813Z,6.70
2018-07-13T15:27:12.987Z,3.50
2018-07-13T15:29:42.166Z,3.17
2018-07-13T15:32:11.413Z,8.90
2018-07-13T15:34:40.635Z,3.00
2018-07-13T15:37:10.857Z,2.80
2018-07-13T15:39:40.132Z,3.00
2018-07-13T15:42:10.186Z,3.50
2018-07-13T15:44:39.429Z,10.03
2018-07-13T15:47:08.577Z,6.50
2018-07-13T15:49:37.753Z,6.33
2018-07-13T15:52:07.070Z,5.03
2018-07-13T15:54:36.291Z,5.07
2018-07-13T15:57:05.524Z,7.47
2018-07-13T15:59:34.789Z,11.40
2018-07-13T16:02:04.239Z,4.00
2018-07-13T16:04:33.557Z,10.00
2018-07-13T16:07:03.866Z,5.90
2018-07-13T16:09:33.094Z,4.60
2018-07-13T16:12:02.307Z,5.60
2018-07-13T16:14:31.475Z,5.90
2018-07-13T16:17:00.695Z,10.33
2018-07-13T16:19:29.890Z,3.63
2018-07-13T16:21:59.200Z,5.03
2018-07-13T16:24:28.436Z,6.80
2018-07-13T16:26:57.605Z,5.43
2018-07-13T16:29:26.873Z,5.83
2018-07-13T16:31:56.037Z,7.40
2018-07-13T16:34:25.236Z,8.40
2018-07-13T16:36:54.441Z,6.43
2018-07-13T16:39:23.659Z,6.00
2018-07-13T16:41:52.839Z,6.37
2018-07-13T16:44:22.043Z,11.63
2018-07-13T16:46:51.239Z,10.33
2018-07-13T16:49:20.469Z,10.97
2018-07-13T16:51:49.861Z,3.70
2018-07-13T16:54:18.990Z,12.83
2018-07-13T16:56:48.203Z,5.70
2018-07-13T16:59:17.344Z,8.23
2018-07-13T17:01:46.529Z,5.03
2018-07-13T17:04:15.835Z,4.60
2018-07-13T17:06:45.016Z,9.40
2018-07-13T17:09:14.181Z,12.47
2018-07-13T17:11:43.314Z,10.33
2018-07-13T17:14:12.509Z,4.90
2018-07-13T17:16:41.631Z,5.97
2018-07-13T17:19:10.816Z,8.23
2018-07-13T17:21:39.992Z,13.63
2018-07-13T17:24:09.157Z,5.83
2018-07-13T17:26:38.329Z,6.50
2018-07-13T17:29:07.497Z,7.43
2018-07-13T17:31:36.658Z,5.20
2018-07-13T17:34:05.961Z,7.63
2018-07-13T17:36:35.096Z,6.47
2018-07-13T17:39:04.777Z,12.30
2018-07-13T17:41:34.013Z,7.87
2018-07-13T17:44:03.287Z,6.60
2018-07-13T17:46:32.672Z,3.87
2018-07-13T17:49:01.950Z,5.40
2018-07-13T17:51:31.162Z,5.90
2018-07-13T17:54:00.469Z,7.00
2018-07-13T17:56:29.663Z,8.00
2018-07-13T17:58:59.064Z,8.87
2018-07-13T18:01:28.280Z,4.43
2018-07-13T18:03:57.505Z,7.53
2018-07-13T18:06:26.864Z,7.93
2018-07-13T18:08:56.065Z,5.03
2018-07-13T18:11:25.302Z,4.23
2018-07-13T18:13:54.474Z,3.37
2018-07-13T18:16:23.663Z,3.27
2018-07-13T18:18:52.805Z,6.30
2018-07-13T18:21:22.065Z,9.13
2018-07-13T18:23:51.237Z,6.23
2018-07-13T18:26:20.403Z,8.10
2018-07-13T18:28:49.792Z,4.00
2018-07-13T18:31:19.095Z,10.23
2018-07-13T18:33:48.274Z,6.80
2018-07-13T18:36:17.501Z,7.13
2018-07-13T18:38:46.660Z,3.60
2018-07-13T18:41:16.007Z,5.60
2018-07-13T18:43:45.330Z,5.70
2018-07-13T18:46:14.550Z,6.23
2018-07-13T18:48:43.818Z,9.83
2018-07-13T18:51:13.079Z,9.30
2018-07-13T18:53:42.232Z,8.73
2018-07-13T18:56:11.427Z,7.07
2018-07-13T18:58:40.712Z,5.10
2018-07-13T19:01:09.864Z,11.93
2018-07-13T19:03:39.218Z,5.97
2018-07-13T19:06:08.457Z,12.10
2018-07-13T19:08:37.570Z,4.90
2018-07-13T19:11:06.975Z,7.30
2018-07-13T19:13:36.148Z,5.37
2018-07-13T19:16:05.456Z,7.83
2018-07-13T19:18:34.613Z,6.70
2018-07-13T19:21:03.810Z,14.77
2018-07-13T19:23:32.977Z,10.07
2018-07-13T19:26:02.194Z,8.37
2018-07-13T19:28:31.387Z,14.90
2018-07-13T19:31:00.644Z,8.60
2018-07-13T19:33:29.915Z,18.33
2018-07-13T19:35:59.087Z,9.50
2018-07-13T19:38:28.268Z,10.80
2018-07-13T19:40:57.632Z,11.10
2018-07-13T19:43:26.834Z,18.33
2018-07-13T19:45:56.059Z,16.30
2018-07-13T19:48:25.272Z,20.70
2018-07-13T19:50:54.501Z,12.00
2018-07-13T19:53:23.687Z,10.13
2018-07-13T19:55:52.972Z,9.30
2018-07-13T19:58:22.171Z,10.00
2018-07-13T20:00:51.366Z,13.43
2018-07-13T20:03:20.527Z,11.60
2018-07-13T20:05:49.682Z,22.13
2018-07-13T20:08:18.900Z,10.53
2018-07-13T20:10:48.112Z,12.30
2018-07-13T20:13:17.285Z,10.30
2018-07-13T20:15:46.474Z,14.53
2018-07-13T20:18:15.948Z,21.20
2018-07-13T20:20:45.160Z,13.03
2018-07-13T20:23:14.365Z,14.90
2018-07-13T20:25:43.564Z,10.20
2018-07-13T20:28:12.697Z,16.43
2018-07-13T20:30:42.036Z,15.73
2018-07-13T20:33:11.201Z,18.70
2018-07-13T20:35:40.367Z,17.20
2018-07-13T20:38:09.590Z,16.73
2018-07-13T20:40:38.812Z,28.67
2018-07-13T20:43:08.163Z,25.20
2018-07-13T20:45:37.353Z,30.97
2018-07-13T20:48:06.548Z,28.03
2018-07-13T20:50:35.681Z,32.43
2018-07-13T20:53:04.884Z,32.23
2018-07-13T20:55:34.009Z,38.47
2018-07-13T20:58:03.284Z,35.83
2018-07-13T21:00:32.465Z,23.70
2018-07-13T21:03:01.654Z,22.00
2018-07-13T21:05:30.788Z,27.43
2018-07-13T21:08:00.089Z,29.30
2018-07-13T21:10:29.417Z,23.40
2018-07-13T21:12:58.568Z,32.40
2018-07-13T21:15:27.953Z,31.43
2018-07-13T21:17:57.221Z,21.53
2018-07-13T21:20:26.789Z,16.07
2018-07-13T21:22:56.010Z,19.47
2018-07-13T21:25:25.402Z,19.00
2018-07-13T21:27:54.519Z,19.57
2018-07-13T21:30:23.629Z,19.60
2018-07-13T21:32:52.844Z,17.80
2018-07-13T21:35:22.060Z,27.10
2018-07-13T21:37:51.209Z,53.87
2018-07-13T21:40:20.377Z,62.93
2018-07-13T21:42:49.523Z,57.13
2018-07-13T21:45:18.683Z,64.83
2018-07-13T21:47:48.003Z,61.37
2018-07-13T21:50:17.138Z,32.40
2018-07-13T21:52:46.352Z,46.50
2018-07-13T21:55:15.528Z,41.97
2018-07-13T21:57:44.697Z,41.17
2018-07-13T22:00:13.836Z,53.40
2018-07-13T22:02:43.115Z,43.63
2018-07-13T22:05:12.284Z,42.00
2018-07-13T22:07:41.442Z,78.50
2018-07-13T22:10:10.571Z,106.40
2018-07-13T22:12:39.739Z,116.97
2018-07-13T22:15:08.937Z,111.73
2018-07-13T22:17:38.057Z,94.10
2018-07-13T22:20:07.285Z,89.80
2018-07-13T22:22:36.487Z,61.27
2018-07-13T22:25:05.756Z,34.47
2018-07-13T22:27:35.004Z,49.33
2018-07-13T22:30:04.577Z,49.33
2018-07-13T22:32:33.924Z,39.00
2018-07-13T22:35:03.105Z,46.27
2018-07-13T22:37:32.246Z,33.13
2018-07-13T22:40:01.365Z,21.67
2018-07-13T22:42:31.537Z,31.70
2018-07-13T22:45:00.719Z,32.37
2018-07-13T22:47:30.892Z,29.50
2018-07-13T22:50:00.125Z,24.00
2018-07-13T22:52:29.297Z,27.43
2018-07-13T22:54:58.457Z,30.67
2018-07-13T22:57:27.665Z,34.30
2018-07-13T22:59:56.826Z,32.80
2018-07-13T23:02:25.992Z,36.67
2018-07-13T23:04:55.191Z,33.00
2018-07-13T23:07:24.345Z,37.40
2018-07-13T23:09:53.650Z,53.47
2018-07-13T23:12:22.892Z,40.40
2018-07-13T23:14:52.068Z,36.80
2018-07-13T23:17:21.274Z,35.37
2018-07-13T23:19:50.428Z,43.17
2018-07-13T23:22:19.809Z,32.87
2018-07-13T23:24:49.052Z,33.33
2018-07-13T23:27:18.199Z,31.93
2018-07-13T23:29:47.362Z,29.50
2018-07-13T23:32:16.568Z,25.70
2018-07-13T23:34:45.732Z,36.17
2018-07-13T23:37:14.938Z,30.13
2018-07-13T23:39:44.232Z,39.20
2018-07-13T23:42:13.523Z,34.10
2018-07-13T23:44:42.731Z,31.37
2018-07-13T23:47:12.021Z,35.57
2018-07-13T23:49:41.285Z,32.93
2018-07-13T23:52:10.456Z,32.23
2018-07-13T23:54:39.724Z,26.50
2018-07-13T23:57:09.004Z,25.43
2018-07-13T23:59:38.174Z,19.83
